sensor_id;sensor_type;location;lat;lon;timestamp;P1;durP1;ratioP1;P2;durP2;ratioP2
15528;SDS011;7866;52.280;9.500;2023-02-15T00:00:40;10.43;;;8.03;;
15528;SDS011;7866;52.280;9.500;2023-02-15T00:05:43;10.07;;;8.63;;
15528;SDS011;7866;52.280;9.500;2023-02-15T00:10:45;8.97;;;8.07;;
15528;SDS011;7866;52.280;9.500;2023-02-15T00:15:47;11.13;;;8.00;;
15528;SDS011;7866;52.280;9.500;2023-02-15T00:20:50;8.60;;;6.87;;
15528;SDS011;7866;52.280;9.500;2023-02-15T00:25:51;8.00;;;7.10;;
15528;SDS011;7866;52.280;9.500;2023-02-15T00:30:53;7.53;;;6.40;;
15528;SDS011;7866;52.280;9.500;2023-02-15T00:35:57;7.77;;;6.87;;
15528;SDS011;7866;52.280;9.500;2023-02-15T00:40:59;9.40;;;7.90;;
15528;SDS011;7866;52.280;9.500;2023-02-15T00:46:03;13.07;;;10.13;;
15528;SDS011;7866;52.280;9.500;2023-02-15T00:51:07;10.30;;;8.03;;
15528;SDS011;7866;52.280;9.500;2023-02-15T00:56:09;7.17;;;6.17;;
15528;SDS011;7866;52.280;9.500;2023-02-15T01:01:11;7.83;;;6.50;;
15528;SDS011;7866;52.280;9.500;2023-02-15T01:06:15;9.37;;;6.63;;
15528;SDS011;7866;52.280;9.500;2023-02-15T01:11:19;7.60;;;6.80;;
15528;SDS011;7866;52.280;9.500;2023-02-15T01:16:23;7.13;;;6.43;;
15528;SDS011;7866;52.280;9.500;2023-02-15T01:21:27;7.33;;;6.50;;
15528;SDS011;7866;52.280;9.500;2023-02-15T01:26:29;7.10;;;6.40;;
15528;SDS011;7866;52.280;9.500;2023-02-15T01:31:30;7.80;;;7.00;;
15528;SDS011;7866;52.280;9.500;2023-02-15T01:36:34;7.80;;;6.60;;
15528;SDS011;7866;52.280;9.500;2023-02-15T01:41:36;7.87;;;6.57;;
15528;SDS011;7866;52.280;9.500;2023-02-15T01:46:38;7.47;;;6.63;;
15528;SDS011;7866;52.280;9.500;2023-02-15T01:51:43;7.23;;;6.40;;
15528;SDS011;7866;52.280;9.500;2023-02-15T01:56:47;9.17;;;6.43;;
15528;SDS011;7866;52.280;9.500;2023-02-15T02:01:49;6.97;;;6.27;;
15528;SDS011;7866;52.280;9.500;2023-02-15T02:06:54;6.60;;;6.00;;
15528;SDS011;7866;52.280;9.500;2023-02-15T02:11:58;7.03;;;5.53;;
15528;SDS011;7866;52.280;9.500;2023-02-15T02:17:02;6.70;;;6.10;;
15528;SDS011;7866;52.280;9.500;2023-02-15T02:22:28;7.00;;;6.30;;
15528;SDS011;7866;52.280;9.500;2023-02-15T02:27:56;7.07;;;6.00;;
15528;SDS011;7866;52.280;9.500;2023-02-15T02:33:18;6.70;;;6.03;;
15528;SDS011;7866;52.280;9.500;2023-02-15T02:38:29;7.37;;;6.20;;
15528;SDS011;7866;52.280;9.500;2023-02-15T02:43:40;6.93;;;6.23;;
15528;SDS011;7866;52.280;9.500;2023-02-15T02:48:53;8.03;;;6.10;;
15528;SDS011;7866;52.280;9.500;2023-02-15T02:53:56;6.33;;;5.73;;
15528;SDS011;7866;52.280;9.500;2023-02-15T02:59:03;6.33;;;5.73;;
15528;SDS011;7866;52.280;9.500;2023-02-15T03:04:10;7.00;;;5.67;;
15528;SDS011;7866;52.280;9.500;2023-02-15T03:09:17;6.73;;;6.13;;
15528;SDS011;7866;52.280;9.500;2023-02-15T03:14:34;6.13;;;5.57;;
15528;SDS011;7866;52.280;9.500;2023-02-15T03:19:38;6.90;;;5.70;;
15528;SDS011;7866;52.280;9.500;2023-02-15T03:24:41;6.17;;;5.57;;
15528;SDS011;7866;52.280;9.500;2023-02-15T03:29:48;8.37;;;6.43;;
15528;SDS011;7866;52.280;9.500;2023-02-15T03:34:55;7.13;;;6.33;;
15528;SDS011;7866;52.280;9.500;2023-02-15T03:39:58;10.10;;;6.83;;
15528;SDS011;7866;52.280;9.500;2023-02-15T03:45:25;8.43;;;7.00;;
15528;SDS011;7866;52.280;9.500;2023-02-15T03:50:32;8.87;;;7.60;;
15528;SDS011;7866;52.280;9.500;2023-02-15T03:55:56;8.83;;;7.50;;
15528;SDS011;7866;52.280;9.500;2023-02-15T04:00:58;8.53;;;7.63;;
15528;SDS011;7866;52.280;9.500;2023-02-15T04:06:23;9.13;;;7.20;;
15528;SDS011;7866;52.280;9.500;2023-02-15T04:11:25;8.20;;;7.20;;
15528;SDS011;7866;52.280;9.500;2023-02-15T04:16:27;8.83;;;8.03;;
15528;SDS011;7866;52.280;9.500;2023-02-15T04:21:31;8.10;;;7.17;;
15528;SDS011;7866;52.280;9.500;2023-02-15T04:26:49;11.23;;;8.43;;
15528;SDS011;7866;52.280;9.500;2023-02-15T04:31:53;9.13;;;8.17;;
15528;SDS011;7866;52.280;9.500;2023-02-15T04:36:58;10.53;;;8.80;;
15528;SDS011;7866;52.280;9.500;2023-02-15T04:41:59;9.63;;;8.27;;
15528;SDS011;7866;52.280;9.500;2023-02-15T04:47:01;9.60;;;8.70;;
15528;SDS011;7866;52.280;9.500;2023-02-15T04:52:04;9.23;;;7.87;;
15528;SDS011;7866;52.280;9.500;2023-02-15T04:57:05;10.03;;;8.47;;
15528;SDS011;7866;52.280;9.500;2023-02-15T05:02:07;10.23;;;8.87;;
15528;SDS011;7866;52.280;9.500;2023-02-15T05:07:10;9.33;;;8.17;;
15528;SDS011;7866;52.280;9.500;2023-02-15T05:12:11;11.53;;;8.90;;
15528;SDS011;7866;52.280;9.500;2023-02-15T05:17:13;14.67;;;8.90;;
15528;SDS011;7866;52.280;9.500;2023-02-15T05:22:16;13.77;;;9.53;;
15528;SDS011;7866;52.280;9.500;2023-02-15T05:27:17;9.67;;;8.57;;
15528;SDS011;7866;52.280;9.500;2023-02-15T05:32:36;10.90;;;9.30;;
15528;SDS011;7866;52.280;9.500;2023-02-15T05:37:39;11.13;;;9.47;;
15528;SDS011;7866;52.280;9.500;2023-02-15T05:42:41;12.40;;;10.17;;
15528;SDS011;7866;52.280;9.500;2023-02-15T05:47:43;12.80;;;10.23;;
15528;SDS011;7866;52.280;9.500;2023-02-15T05:52:46;12.00;;;9.47;;
15528;SDS011;7866;52.280;9.500;2023-02-15T05:57:48;12.27;;;9.33;;
15528;SDS011;7866;52.280;9.500;2023-02-15T06:02:50;9.60;;;8.60;;
15528;SDS011;7866;52.280;9.500;2023-02-15T06:07:53;7.87;;;7.07;;
15528;SDS011;7866;52.280;9.500;2023-02-15T06:12:54;10.80;;;8.13;;
15528;SDS011;7866;52.280;9.500;2023-02-15T06:17:56;8.80;;;7.90;;
15528;SDS011;7866;52.280;9.500;2023-02-15T06:22:59;11.00;;;8.10;;
15528;SDS011;7866;52.280;9.500;2023-02-15T06:28:00;9.33;;;7.97;;
15528;SDS011;7866;52.280;9.500;2023-02-15T06:33:02;9.50;;;8.47;;
15528;SDS011;7866;52.280;9.500;2023-02-15T06:38:05;7.80;;;7.00;;
15528;SDS011;7866;52.280;9.500;2023-02-15T06:43:07;8.07;;;7.27;;
15528;SDS011;7866;52.280;9.500;2023-02-15T06:48:08;10.17;;;7.87;;
15528;SDS011;7866;52.280;9.500;2023-02-15T06:53:12;11.83;;;7.60;;
15528;SDS011;7866;52.280;9.500;2023-02-15T06:58:14;10.90;;;7.80;;
15528;SDS011;7866;52.280;9.500;2023-02-15T07:03:15;10.43;;;7.30;;
15528;SDS011;7866;52.280;9.500;2023-02-15T07:08:18;9.03;;;6.47;;
15528;SDS011;7866;52.280;9.500;2023-02-15T07:13:20;7.03;;;6.33;;
15528;SDS011;7866;52.280;9.500;2023-02-15T07:18:22;7.83;;;6.70;;
15528;SDS011;7866;52.280;9.500;2023-02-15T07:23:25;10.00;;;7.50;;
15528;SDS011;7866;52.280;9.500;2023-02-15T07:28:26;8.63;;;7.60;;
15528;SDS011;7866;52.280;9.500;2023-02-15T07:33:29;20.57;;;8.00;;
15528;SDS011;7866;52.280;9.500;2023-02-15T07:38:33;9.40;;;7.30;;
15528;SDS011;7866;52.280;9.500;2023-02-15T07:43:36;9.13;;;8.03;;
15528;SDS011;7866;52.280;9.500;2023-02-15T07:48:39;7.93;;;6.83;;
15528;SDS011;7866;52.280;9.500;2023-02-15T07:53:43;9.57;;;8.00;;
15528;SDS011;7866;52.280;9.500;2023-02-15T07:58:45;9.30;;;8.30;;
15528;SDS011;7866;52.280;9.500;2023-02-15T08:03:52;9.57;;;7.50;;
15528;SDS011;7866;52.280;9.500;2023-02-15T08:08:56;10.13;;;8.60;;
15528;SDS011;7866;52.280;9.500;2023-02-15T08:13:58;11.43;;;8.60;;
15528;SDS011;7866;52.280;9.500;2023-02-15T08:19:05;9.90;;;8.67;;
15528;SDS011;7866;52.280;9.500;2023-02-15T08:24:09;13.70;;;10.73;;
15528;SDS011;7866;52.280;9.500;2023-02-15T08:29:12;12.53;;;10.60;;
15528;SDS011;7866;52.280;9.500;2023-02-15T08:34:14;10.90;;;9.80;;
15528;SDS011;7866;52.280;9.500;2023-02-15T08:39:19;14.63;;;12.30;;
15528;SDS011;7866;52.280;9.500;2023-02-15T08:44:21;11.93;;;10.63;;
15528;SDS011;7866;52.280;9.500;2023-02-15T08:49:22;13.43;;;11.40;;
15528;SDS011;7866;52.280;9.500;2023-02-15T08:54:26;13.27;;;10.70;;
15528;SDS011;7866;52.280;9.500;2023-02-15T08:59:27;13.00;;;10.90;;
15528;SDS011;7866;52.280;9.500;2023-02-15T09:04:29;14.43;;;11.57;;
15528;SDS011;7866;52.280;9.500;2023-02-15T09:09:32;12.10;;;10.73;;
15528;SDS011;7866;52.280;9.500;2023-02-15T09:14:33;11.33;;;10.13;;
15528;SDS011;7866;52.280;9.500;2023-02-15T09:19:35;12.07;;;9.70;;
15528;SDS011;7866;52.280;9.500;2023-02-15T09:24:38;11.87;;;9.13;;
15528;SDS011;7866;52.280;9.500;2023-02-15T09:29:40;13.90;;;10.17;;
15528;SDS011;7866;52.280;9.500;2023-02-15T09:34:42;11.10;;;8.63;;
15528;SDS011;7866;52.280;9.500;2023-02-15T09:39:47;12.73;;;10.13;;
15528;SDS011;7866;52.280;9.500;2023-02-15T09:44:56;11.07;;;8.67;;
15528;SDS011;7866;52.280;9.500;2023-02-15T09:50:08;10.47;;;8.80;;
15528;SDS011;7866;52.280;9.500;2023-02-15T09:55:24;10.77;;;9.33;;
15528;SDS011;7866;52.280;9.500;2023-02-15T10:00:38;10.17;;;8.93;;
15528;SDS011;7866;52.280;9.500;2023-02-15T10:05:53;10.87;;;8.80;;
15528;SDS011;7866;52.280;9.500;2023-02-15T10:11:08;10.77;;;8.67;;
15528;SDS011;7866;52.280;9.500;2023-02-15T10:16:43;9.70;;;8.67;;
15528;SDS011;7866;52.280;9.500;2023-02-15T10:21:58;11.37;;;8.43;;
15528;SDS011;7866;52.280;9.500;2023-02-15T10:27:13;9.90;;;8.50;;
15528;SDS011;7866;52.280;9.500;2023-02-15T10:32:21;9.97;;;8.03;;
15528;SDS011;7866;52.280;9.500;2023-02-15T10:37:32;11.13;;;8.27;;
15528;SDS011;7866;52.280;9.500;2023-02-15T10:42:53;14.77;;;10.60;;
15528;SDS011;7866;52.280;9.500;2023-02-15T10:48:11;12.97;;;9.20;;
15528;SDS011;7866;52.280;9.500;2023-02-15T10:53:26;9.57;;;8.13;;
15528;SDS011;7866;52.280;9.500;2023-02-15T11:04:29;11.03;;;8.30;;
15528;SDS011;7866;52.280;9.500;2023-02-15T11:09:38;12.57;;;9.17;;
15528;SDS011;7866;52.280;9.500;2023-02-15T11:14:46;11.63;;;8.80;;
15528;SDS011;7866;52.280;9.500;2023-02-15T11:19:56;10.93;;;8.77;;
15528;SDS011;7866;52.280;9.500;2023-02-15T11:25:05;11.50;;;8.93;;
15528;SDS011;7866;52.280;9.500;2023-02-15T11:30:20;11.50;;;8.40;;
15528;SDS011;7866;52.280;9.500;2023-02-15T11:35:25;11.00;;;8.90;;
15528;SDS011;7866;52.280;9.500;2023-02-15T11:40:32;11.27;;;8.57;;
15528;SDS011;7866;52.280;9.500;2023-02-15T11:45:45;11.43;;;8.83;;
15528;SDS011;7866;52.280;9.500;2023-02-15T11:50:47;12.20;;;9.10;;
15528;SDS011;7866;52.280;9.500;2023-02-15T11:55:49;9.23;;;8.27;;
15528;SDS011;7866;52.280;9.500;2023-02-15T12:00:53;12.07;;;8.73;;
15528;SDS011;7866;52.280;9.500;2023-02-15T12:06:01;10.80;;;8.53;;
15528;SDS011;7866;52.280;9.500;2023-02-15T12:11:06;11.90;;;9.33;;
15528;SDS011;7866;52.280;9.500;2023-02-15T12:16:13;10.47;;;8.70;;
15528;SDS011;7866;52.280;9.500;2023-02-15T12:21:15;10.63;;;9.53;;
15528;SDS011;7866;52.280;9.500;2023-02-15T12:26:27;11.63;;;9.37;;
15528;SDS011;7866;52.280;9.500;2023-02-15T12:31:33;12.30;;;8.73;;
15528;SDS011;7866;52.280;9.500;2023-02-15T12:36:43;12.43;;;9.10;;
15528;SDS011;7866;52.280;9.500;2023-02-15T12:42:01;11.13;;;8.80;;
15528;SDS011;7866;52.280;9.500;2023-02-15T12:47:16;10.60;;;8.77;;
15528;SDS011;7866;52.280;9.500;2023-02-15T12:52:23;12.00;;;9.30;;
15528;SDS011;7866;52.280;9.500;2023-02-15T12:57:26;9.27;;;8.27;;
15528;SDS011;7866;52.280;9.500;2023-02-15T13:02:34;14.20;;;8.97;;
15528;SDS011;7866;52.280;9.500;2023-02-15T13:07:44;10.67;;;8.90;;
15528;SDS011;7866;52.280;9.500;2023-02-15T13:12:47;9.47;;;7.93;;
15528;SDS011;7866;52.280;9.500;2023-02-15T13:17:56;10.87;;;8.53;;
15528;SDS011;7866;52.280;9.500;2023-02-15T13:22:59;13.47;;;9.70;;
15528;SDS011;7866;52.280;9.500;2023-02-15T13:28:05;10.07;;;8.83;;
15528;SDS011;7866;52.280;9.500;2023-02-15T13:33:14;9.47;;;8.20;;
15528;SDS011;7866;52.280;9.500;2023-02-15T13:38:24;10.33;;;8.00;;
15528;SDS011;7866;52.280;9.500;2023-02-15T13:43:46;9.50;;;8.10;;
15528;SDS011;7866;52.280;9.500;2023-02-15T13:48:58;10.00;;;8.03;;
15528;SDS011;7866;52.280;9.500;2023-02-15T13:54:23;11.67;;;9.30;;
15528;SDS011;7866;52.280;9.500;2023-02-15T13:59:46;11.00;;;8.53;;
15528;SDS011;7866;52.280;9.500;2023-02-15T14:10:39;10.10;;;8.43;;
15528;SDS011;7866;52.280;9.500;2023-02-15T14:15:50;17.63;;;12.23;;
15528;SDS011;7866;52.280;9.500;2023-02-15T14:21:03;12.27;;;9.03;;
15528;SDS011;7866;52.280;9.500;2023-02-15T14:26:11;11.27;;;8.73;;
15528;SDS011;7866;52.280;9.500;2023-02-15T14:31:21;8.90;;;7.50;;
15528;SDS011;7866;52.280;9.500;2023-02-15T14:36:30;9.33;;;7.73;;
15528;SDS011;7866;52.280;9.500;2023-02-15T14:41:35;11.00;;;8.63;;
15528;SDS011;7866;52.280;9.500;2023-02-15T14:46:42;10.20;;;8.17;;
15528;SDS011;7866;52.280;9.500;2023-02-15T14:51:55;11.00;;;8.20;;
15528;SDS011;7866;52.280;9.500;2023-02-15T14:57:22;11.17;;;8.90;;
15528;SDS011;7866;52.280;9.500;2023-02-15T15:02:29;10.93;;;8.87;;
15528;SDS011;7866;52.280;9.500;2023-02-15T15:07:43;10.50;;;8.53;;
15528;SDS011;7866;52.280;9.500;2023-02-15T15:12:47;10.60;;;8.73;;
15528;SDS011;7866;52.280;9.500;2023-02-15T15:17:57;10.50;;;8.33;;
15528;SDS011;7866;52.280;9.500;2023-02-15T15:28:59;12.03;;;9.50;;
15528;SDS011;7866;52.280;9.500;2023-02-15T15:40:00;8.80;;;7.93;;
15528;SDS011;7866;52.280;9.500;2023-02-15T15:45:40;12.90;;;10.57;;
15528;SDS011;7866;52.280;9.500;2023-02-15T15:50:52;12.67;;;9.43;;
15528;SDS011;7866;52.280;9.500;2023-02-15T15:55:56;9.77;;;8.00;;
15528;SDS011;7866;52.280;9.500;2023-02-15T16:01:03;10.57;;;7.97;;
15528;SDS011;7866;52.280;9.500;2023-02-15T16:06:11;10.30;;;7.80;;
15528;SDS011;7866;52.280;9.500;2023-02-15T16:11:16;8.50;;;7.03;;
15528;SDS011;7866;52.280;9.500;2023-02-15T16:16:25;10.00;;;7.97;;
15528;SDS011;7866;52.280;9.500;2023-02-15T16:21:31;12.33;;;8.73;;
15528;SDS011;7866;52.280;9.500;2023-02-15T16:32:22;9.80;;;7.03;;
15528;SDS011;7866;52.280;9.500;2023-02-15T16:37:25;8.23;;;6.70;;
15528;SDS011;7866;52.280;9.500;2023-02-15T16:42:28;12.77;;;9.50;;
15528;SDS011;7866;52.280;9.500;2023-02-15T16:47:32;9.30;;;7.63;;
15528;SDS011;7866;52.280;9.500;2023-02-15T16:52:38;8.47;;;7.13;;
15528;SDS011;7866;52.280;9.500;2023-02-15T16:57:44;9.53;;;8.27;;
15528;SDS011;7866;52.280;9.500;2023-02-15T17:02:54;12.13;;;9.37;;
15528;SDS011;7866;52.280;9.500;2023-02-15T17:08:10;10.50;;;8.77;;
15528;SDS011;7866;52.280;9.500;2023-02-15T17:13:16;12.40;;;8.27;;
15528;SDS011;7866;52.280;9.500;2023-02-15T17:18:20;12.63;;;9.27;;
15528;SDS011;7866;52.280;9.500;2023-02-15T17:23:26;9.57;;;7.60;;
15528;SDS011;7866;52.280;9.500;2023-02-15T17:28:31;10.77;;;8.27;;
15528;SDS011;7866;52.280;9.500;2023-02-15T17:33:37;10.40;;;8.13;;
15528;SDS011;7866;52.280;9.500;2023-02-15T17:38:40;9.57;;;8.40;;
15528;SDS011;7866;52.280;9.500;2023-02-15T17:44:00;10.37;;;7.93;;
15528;SDS011;7866;52.280;9.500;2023-02-15T17:49:04;11.97;;;9.07;;
15528;SDS011;7866;52.280;9.500;2023-02-15T17:54:07;9.00;;;8.10;;
15528;SDS011;7866;52.280;9.500;2023-02-15T17:59:27;12.70;;;10.00;;
15528;SDS011;7866;52.280;9.500;2023-02-15T18:04:31;12.10;;;9.80;;
15528;SDS011;7866;52.280;9.500;2023-02-15T18:09:51;11.93;;;9.67;;
15528;SDS011;7866;52.280;9.500;2023-02-15T18:15:10;12.03;;;10.20;;
15528;SDS011;7866;52.280;9.500;2023-02-15T18:20:17;14.13;;;10.67;;
15528;SDS011;7866;52.280;9.500;2023-02-15T18:25:21;13.03;;;10.37;;
15528;SDS011;7866;52.280;9.500;2023-02-15T18:30:24;13.03;;;10.40;;
15528;SDS011;7866;52.280;9.500;2023-02-15T18:35:29;13.07;;;10.17;;
15528;SDS011;7866;52.280;9.500;2023-02-15T18:40:32;13.47;;;10.07;;
15528;SDS011;7866;52.280;9.500;2023-02-15T18:45:34;10.77;;;9.53;;
15528;SDS011;7866;52.280;9.500;2023-02-15T18:50:37;12.20;;;9.93;;
15528;SDS011;7866;52.280;9.500;2023-02-15T18:55:39;12.17;;;9.20;;
15528;SDS011;7866;52.280;9.500;2023-02-15T19:00:41;11.27;;;8.83;;
15528;SDS011;7866;52.280;9.500;2023-02-15T19:05:45;10.50;;;9.00;;
15528;SDS011;7866;52.280;9.500;2023-02-15T19:10:47;11.57;;;9.87;;
15528;SDS011;7866;52.280;9.500;2023-02-15T19:15:49;11.27;;;9.40;;
15528;SDS011;7866;52.280;9.500;2023-02-15T19:20:52;10.70;;;9.37;;
15528;SDS011;7866;52.280;9.500;2023-02-15T19:25:54;12.80;;;9.87;;
15528;SDS011;7866;52.280;9.500;2023-02-15T19:30:55;10.43;;;8.77;;
15528;SDS011;7866;52.280;9.500;2023-02-15T19:35:58;11.07;;;9.13;;
15528;SDS011;7866;52.280;9.500;2023-02-15T19:41:01;11.40;;;9.73;;
15528;SDS011;7866;52.280;9.500;2023-02-15T19:46:08;13.47;;;9.83;;
15528;SDS011;7866;52.280;9.500;2023-02-15T19:51:16;12.53;;;10.60;;
15528;SDS011;7866;52.280;9.500;2023-02-15T19:56:19;12.77;;;10.23;;
15528;SDS011;7866;52.280;9.500;2023-02-15T20:01:22;13.03;;;10.30;;
15528;SDS011;7866;52.280;9.500;2023-02-15T20:06:26;14.83;;;11.40;;
15528;SDS011;7866;52.280;9.500;2023-02-15T20:11:27;13.97;;;10.43;;
15528;SDS011;7866;52.280;9.500;2023-02-15T20:16:29;13.07;;;10.47;;
15528;SDS011;7866;52.280;9.500;2023-02-15T20:21:32;13.60;;;10.83;;
15528;SDS011;7866;52.280;9.500;2023-02-15T20:26:35;13.13;;;10.33;;
15528;SDS011;7866;52.280;9.500;2023-02-15T20:31:36;12.40;;;10.50;;
15528;SDS011;7866;52.280;9.500;2023-02-15T20:36:39;12.83;;;9.97;;
15528;SDS011;7866;52.280;9.500;2023-02-15T20:41:42;13.50;;;10.87;;
15528;SDS011;7866;52.280;9.500;2023-02-15T20:46:47;14.33;;;11.20;;
15528;SDS011;7866;52.280;9.500;2023-02-15T20:51:51;14.77;;;11.40;;
15528;SDS011;7866;52.280;9.500;2023-02-15T20:56:54;16.47;;;11.83;;
15528;SDS011;7866;52.280;9.500;2023-02-15T21:01:57;18.17;;;12.57;;
15528;SDS011;7866;52.280;9.500;2023-02-15T21:07:02;15.63;;;12.57;;
15528;SDS011;7866;52.280;9.500;2023-02-15T21:12:04;17.73;;;13.50;;
15528;SDS011;7866;52.280;9.500;2023-02-15T21:17:10;17.57;;;12.60;;
15528;SDS011;7866;52.280;9.500;2023-02-15T21:22:14;14.63;;;11.87;;
15528;SDS011;7866;52.280;9.500;2023-02-15T21:27:16;15.77;;;13.13;;
15528;SDS011;7866;52.280;9.500;2023-02-15T21:32:18;14.60;;;12.40;;
15528;SDS011;7866;52.280;9.500;2023-02-15T21:37:27;17.93;;;12.33;;
15528;SDS011;7866;52.280;9.500;2023-02-15T21:42:31;14.20;;;11.60;;
15528;SDS011;7866;52.280;9.500;2023-02-15T21:47:50;16.50;;;12.60;;
15528;SDS011;7866;52.280;9.500;2023-02-15T21:52:53;17.43;;;13.10;;
15528;SDS011;7866;52.280;9.500;2023-02-15T21:57:56;17.03;;;14.03;;
15528;SDS011;7866;52.280;9.500;2023-02-15T22:02:58;16.93;;;13.47;;
15528;SDS011;7866;52.280;9.500;2023-02-15T22:08:02;18.00;;;13.83;;
15528;SDS011;7866;52.280;9.500;2023-02-15T22:13:04;17.63;;;14.17;;
15528;SDS011;7866;52.280;9.500;2023-02-15T22:18:08;18.33;;;13.80;;
15528;SDS011;7866;52.280;9.500;2023-02-15T22:23:21;18.13;;;13.73;;
15528;SDS011;7866;52.280;9.500;2023-02-15T22:28:25;18.10;;;13.30;;
15528;SDS011;7866;52.280;9.500;2023-02-15T22:33:32;17.70;;;13.43;;
15528;SDS011;7866;52.280;9.500;2023-02-15T22:38:35;19.90;;;14.33;;
15528;SDS011;7866;52.280;9.500;2023-02-15T22:43:38;16.70;;;13.30;;
15528;SDS011;7866;52.280;9.500;2023-02-15T22:48:41;15.63;;;12.60;;
15528;SDS011;7866;52.280;9.500;2023-02-15T22:53:44;16.97;;;12.83;;
15528;SDS011;7866;52.280;9.500;2023-02-15T22:58:48;16.27;;;13.13;;
15528;SDS011;7866;52.280;9.500;2023-02-15T23:03:50;16.87;;;11.97;;
15528;SDS011;7866;52.280;9.500;2023-02-15T23:08:53;17.43;;;13.00;;
15528;SDS011;7866;52.280;9.500;2023-02-15T23:13:54;15.77;;;12.30;;
15528;SDS011;7866;52.280;9.500;2023-02-15T23:18:56;16.60;;;12.83;;
15528;SDS011;7866;52.280;9.500;2023-02-15T23:24:18;17.30;;;12.30;;
15528;SDS011;7866;52.280;9.500;2023-02-15T23:29:22;16.00;;;12.73;;
15528;SDS011;7866;52.280;9.500;2023-02-15T23:34:25;17.70;;;12.27;;
15528;SDS011;7866;52.280;9.500;2023-02-15T23:39:30;17.23;;;13.00;;
15528;SDS011;7866;52.280;9.500;2023-02-15T23:44:49;16.63;;;13.60;;
15528;SDS011;7866;52.280;9.500;2023-02-15T23:49:50;18.10;;;13.33;;
15528;SDS011;7866;52.280;9.500;2023-02-15T23:54:53;16.70;;;12.87;;
15528;SDS011;7866;52.280;9.500;2023-02-15T23:59:55;20.67;;;14.70;;
